Catàleg de serveis del Meteocat
Campanya meteocatpedra

Dades de l'estació automàtica Portbou

?
?
Resum diari 23:00 TU
Dades diàries de l'estació meteorològica
Temperatura mitjana 25.9 °C
Temperatura màxima 30.2 °C 14:17 TU
Temperatura mínima 21.8 °C 4:32 TU
Humitat relativa mitjana 33%
Precipitació acumulada 0.0 mm
Ratxa màxima del vent (10 m) 99.4 km/h - 353º 6:00 TU
Pressió atmosfèrica mitjana 1010.2 hPa
Irradiació solar global 30.5 MJ/m2

El tram horari està expressat en Temps Universal (TU). Cal sumar una hora en horari d'hivern i dues en horari d'estiu per passar a l'hora oficial.

Portbou

Metadades estació meteorol´gica
Municipi Portbou
Comarca Alt Empordà
Altitud 196 m
Data alta 25.03.1998
Estat actual Operativa
Dades de període
Període
TU
TM
°C
TX
°C
TN
°C
HRM
%
PPT
mm
VVM (10 m)
km/h
DVM (10 m)
graus
VVX (10 m)
km/h
PM
hPa
RS
W/m2
00:00 - 00:30 24.8 25.0 24.6 41 0.0 54.0 329 85.3 1009.7 0
00:30 - 01:00 24.5 24.7 24.3 43 0.0 52.2 330 74.5 1009.9 0
01:00 - 01:30 24.0 24.3 23.8 45 0.0 43.6 338 63.7 1009.8 0
01:30 - 02:00 23.6 23.8 23.4 46 0.0 40.3 334 64.8 1009.8 0
02:00 - 02:30 23.2 23.4 23.1 47 0.0 40.7 326 60.1 1009.9 0
02:30 - 03:00 22.9 23.1 22.8 47 0.0 39.2 334 61.2 1009.7 0
03:00 - 03:30 22.7 22.9 22.6 47 0.0 34.9 324 68.4 1010.0 0
03:30 - 04:00 22.5 22.7 22.3 46 0.0 40.0 325 70.6 1009.9 0
04:00 - 04:30 22.3 22.5 21.9 47 0.0 43.6 329 74.5 1010.0 1
04:30 - 05:00 22.0 22.1 21.8 50 0.0 33.5 331 57.6 1010.3 25
05:00 - 05:30 22.1 22.2 22.0 50 0.0 41.8 344 83.9 1009.9 88
05:30 - 06:00 22.2 22.6 22.1 49 0.0 51.1 351 86.8 1009.4 175
06:00 - 06:30 22.9 23.2 22.6 46 0.0 52.6 345 99.4 1009.3 270
06:30 - 07:00 23.3 23.6 23.1 45 0.0 42.1 346 79.9 1009.6 368
07:00 - 07:30 23.5 23.8 23.3 43 0.0 56.2 344 92.9 1009.0 458
07:30 - 08:00 23.9 24.3 23.6 42 0.0 58.7 346 88.6 1008.8 557
08:00 - 08:30 24.3 24.6 24.1 40 0.0 60.1 346 90.0 1009.0 346
08:30 - 09:00 25.0 25.7 24.7 37 0.0 59.0 347 87.5 1009.2 727
09:00 - 09:30 25.7 26.3 25.2 33 0.0 55.1 345 98.3 1009.5 800
09:30 - 10:00 26.5 26.8 26.2 30 0.0 50.4 347 78.1 1009.5 861
10:00 - 10:30 27.0 27.7 26.6 28 0.0 45.4 344 77.0 1009.5 915
10:30 - 11:00 27.3 27.6 26.9 27 0.0 48.6 338 80.6 1009.4 957
11:00 - 11:30 27.8 28.6 27.1 25 0.0 46.8 340 76.0 1009.3 989
11:30 - 12:00 28.1 28.7 27.7 24 0.0 48.2 338 75.6 1009.2 998
12:00 - 12:30 28.8 29.3 28.2 23 0.0 43.9 346 70.9 1009.1 972
12:30 - 13:00 28.6 29.0 28.2 23 0.0 49.7 336 76.3 1008.9 977
13:00 - 13:30 28.9 29.2 28.4 22 0.0 43.9 333 68.0 1009.2 947
13:30 - 14:00 29.3 29.9 28.8 22 0.0 40.3 337 72.7 1009.5 895
14:00 - 14:30 29.6 30.2 29.1 21 0.0 38.5 340 69.1 1009.4 836
14:30 - 15:00 29.5 29.9 29.1 22 0.0 45.0 348 71.6 1009.3 773
15:00 - 15:30 29.2 29.4 28.9 22 0.0 46.8 349 73.8 1009.5 696
15:30 - 16:00 29.0 29.4 28.6 23 0.0 40.3 353 72.0 1009.7 607
16:00 - 16:30 28.9 29.3 28.5 23 0.0 40.0 352 71.3 1009.7 515
16:30 - 17:00 28.7 29.2 28.4 23 0.0 41.4 348 66.2 1009.8 427
17:00 - 17:30 28.2 28.5 28.0 24 0.0 41.4 348 74.5 1010.0 330
17:30 - 18:00 27.9 28.1 27.8 24 0.0 43.2 348 75.2 1010.3 234
18:00 - 18:30 27.7 27.9 27.4 24 0.0 43.9 347 75.6 1010.7 141
18:30 - 19:00 27.2 27.4 26.8 26 0.0 41.4 346 67.0 1011.0 57
19:00 - 19:30 26.6 26.7 26.4 27 0.0 36.7 340 58.3 1011.7 7
19:30 - 20:00 26.3 26.4 26.3 27 0.0 38.9 335 72.4 1012.0 0
20:00 - 20:30 26.2 26.4 26.2 27 0.0 46.8 331 69.5 1012.3 0
20:30 - 21:00 26.1 26.2 26.0 28 0.0 45.4 331 67.7 1012.6 0
21:00 - 21:30 25.9 26.0 25.8 28 0.0 47.5 331 71.6 1012.7 0
21:30 - 22:00 25.8 25.9 25.7 28 0.0 43.9 331 64.8 1013.0 0
22:00 - 22:30 25.6 25.7 25.5 29 0.0 45.4 331 67.3 1013.1 0
22:30 - 23:00 25.4 25.5 25.2 29 0.0 41.4 332 60.5 1013.3 0
23:00 - 23:30 25.0 25.3 24.8 30 0.0 40.7 341 66.2 1013.5 0

Les dades en taronja només han passat un control de qualitat automàtic. Resta pendent la seva validació definitiva.